sensor_id;sensor_type;location;lat;lon;timestamp;temperature;humidity
18894;DHT22;9579;49.488;8.226;2023-03-13T00:01:31;12.80;99.90
18894;DHT22;9579;49.488;8.226;2023-03-13T00:04:18;12.80;99.90
18894;DHT22;9579;49.488;8.226;2023-03-13T00:07:08;12.90;99.90
18894;DHT22;9579;49.488;8.226;2023-03-13T00:09:58;12.80;99.90
18894;DHT22;9579;49.488;8.226;2023-03-13T00:12:48;12.80;99.90
18894;DHT22;9579;49.488;8.226;2023-03-13T00:15:35;12.80;99.90
18894;DHT22;9579;49.488;8.226;2023-03-13T00:18:23;12.70;99.90
18894;DHT22;9579;49.488;8.226;2023-03-13T00:21:11;12.90;99.90
18894;DHT22;9579;49.488;8.226;2023-03-13T00:24:00;12.90;99.90
18894;DHT22;9579;49.488;8.226;2023-03-13T00:26:48;12.90;99.90
18894;DHT22;9579;49.488;8.226;2023-03-13T00:29:35;12.90;99.90
18894;DHT22;9579;49.488;8.226;2023-03-13T00:32:22;12.90;99.90
18894;DHT22;9579;49.488;8.226;2023-03-13T00:35:09;12.90;99.90
18894;DHT22;9579;49.488;8.226;2023-03-13T00:37:56;12.90;99.90
18894;DHT22;9579;49.488;8.226;2023-03-13T00:40:44;13.00;99.90
18894;DHT22;9579;49.488;8.226;2023-03-13T00:43:32;13.10;99.90
18894;DHT22;9579;49.488;8.226;2023-03-13T00:46:22;13.10;99.90
18894;DHT22;9579;49.488;8.226;2023-03-13T00:49:09;13.00;99.90
18894;DHT22;9579;49.488;8.226;2023-03-13T00:51:56;13.00;99.90
18894;DHT22;9579;49.488;8.226;2023-03-13T00:54:44;13.00;99.90
18894;DHT22;9579;49.488;8.226;2023-03-13T00:57:33;13.10;99.90
18894;DHT22;9579;49.488;8.226;2023-03-13T01:00:22;13.50;99.90
18894;DHT22;9579;49.488;8.226;2023-03-13T01:03:10;13.10;99.90
18894;DHT22;9579;49.488;8.226;2023-03-13T01:05:58;13.80;99.90
18894;DHT22;9579;49.488;8.226;2023-03-13T01:08:46;13.80;99.90
18894;DHT22;9579;49.488;8.226;2023-03-13T01:11:35;13.60;99.90
18894;DHT22;9579;49.488;8.226;2023-03-13T01:14:24;13.20;99.90
18894;DHT22;9579;49.488;8.226;2023-03-13T01:17:11;13.40;99.90
18894;DHT22;9579;49.488;8.226;2023-03-13T01:19:59;13.40;99.90
18894;DHT22;9579;49.488;8.226;2023-03-13T01:22:46;13.40;99.90
18894;DHT22;9579;49.488;8.226;2023-03-13T01:25:35;13.50;99.90
18894;DHT22;9579;49.488;8.226;2023-03-13T01:28:24;13.30;99.90
18894;DHT22;9579;49.488;8.226;2023-03-13T01:31:15;13.30;99.90
18894;DHT22;9579;49.488;8.226;2023-03-13T01:34:04;13.70;99.90
18894;DHT22;9579;49.488;8.226;2023-03-13T01:36:52;13.40;99.90
18894;DHT22;9579;49.488;8.226;2023-03-13T01:39:40;13.30;99.90
18894;DHT22;9579;49.488;8.226;2023-03-13T01:42:27;13.20;99.90
18894;DHT22;9579;49.488;8.226;2023-03-13T01:48:39;13.10;99.90
18894;DHT22;9579;49.488;8.226;2023-03-13T01:51:29;13.10;99.90
18894;DHT22;9579;49.488;8.226;2023-03-13T01:54:21;13.00;99.90
18894;DHT22;9579;49.488;8.226;2023-03-13T01:57:14;13.10;99.90
18894;DHT22;9579;49.488;8.226;2023-03-13T02:00:05;13.00;99.90
18894;DHT22;9579;49.488;8.226;2023-03-13T02:02:56;13.00;99.90
18894;DHT22;9579;49.488;8.226;2023-03-13T02:05:47;13.00;99.90
18894;DHT22;9579;49.488;8.226;2023-03-13T02:08:37;13.00;99.90
18894;DHT22;9579;49.488;8.226;2023-03-13T02:11:30;13.00;99.90
18894;DHT22;9579;49.488;8.226;2023-03-13T02:14:21;13.00;99.90
18894;DHT22;9579;49.488;8.226;2023-03-13T02:17:09;12.90;99.90
18894;DHT22;9579;49.488;8.226;2023-03-13T02:19:56;12.80;99.90
18894;DHT22;9579;49.488;8.226;2023-03-13T02:22:47;12.80;99.90
18894;DHT22;9579;49.488;8.226;2023-03-13T02:25:41;12.80;99.90
18894;DHT22;9579;49.488;8.226;2023-03-13T02:28:30;13.30;99.90
18894;DHT22;9579;49.488;8.226;2023-03-13T02:31:19;12.70;99.90
18894;DHT22;9579;49.488;8.226;2023-03-13T02:34:06;13.50;99.90
18894;DHT22;9579;49.488;8.226;2023-03-13T02:36:53;12.40;99.90
18894;DHT22;9579;49.488;8.226;2023-03-13T02:39:43;13.00;99.90
18894;DHT22;9579;49.488;8.226;2023-03-13T02:42:33;13.90;99.90
18894;DHT22;9579;49.488;8.226;2023-03-13T02:45:20;13.10;99.90
18894;DHT22;9579;49.488;8.226;2023-03-13T02:48:07;12.10;99.90
18894;DHT22;9579;49.488;8.226;2023-03-13T02:50:54;12.40;99.90
18894;DHT22;9579;49.488;8.226;2023-03-13T02:53:42;12.70;99.90
18894;DHT22;9579;49.488;8.226;2023-03-13T02:56:32;12.60;99.90
18894;DHT22;9579;49.488;8.226;2023-03-13T02:59:21;12.50;99.90
18894;DHT22;9579;49.488;8.226;2023-03-13T03:02:08;13.70;99.90
18894;DHT22;9579;49.488;8.226;2023-03-13T03:04:55;12.40;99.90
18894;DHT22;9579;49.488;8.226;2023-03-13T03:07:42;12.40;99.90
18894;DHT22;9579;49.488;8.226;2023-03-13T03:10:29;12.80;99.90
18894;DHT22;9579;49.488;8.226;2023-03-13T03:13:16;13.30;99.90
18894;DHT22;9579;49.488;8.226;2023-03-13T03:16:09;12.20;99.90
18894;DHT22;9579;49.488;8.226;2023-03-13T03:18:57;12.20;99.90
18894;DHT22;9579;49.488;8.226;2023-03-13T03:21:44;12.20;99.90
18894;DHT22;9579;49.488;8.226;2023-03-13T03:24:33;12.20;99.90
18894;DHT22;9579;49.488;8.226;2023-03-13T03:27:20;12.10;99.90
18894;DHT22;9579;49.488;8.226;2023-03-13T03:30:08;12.00;99.90
18894;DHT22;9579;49.488;8.226;2023-03-13T03:32:57;11.90;99.90
18894;DHT22;9579;49.488;8.226;2023-03-13T03:35:43;11.90;99.90
18894;DHT22;9579;49.488;8.226;2023-03-13T03:38:30;11.80;99.90
18894;DHT22;9579;49.488;8.226;2023-03-13T03:41:18;11.70;99.90
18894;DHT22;9579;49.488;8.226;2023-03-13T03:44:05;11.70;99.90
18894;DHT22;9579;49.488;8.226;2023-03-13T03:46:52;11.50;99.90
18894;DHT22;9579;49.488;8.226;2023-03-13T03:49:40;11.60;99.90
18894;DHT22;9579;49.488;8.226;2023-03-13T03:52:29;11.50;99.90
18894;DHT22;9579;49.488;8.226;2023-03-13T03:55:16;11.40;99.90
18894;DHT22;9579;49.488;8.226;2023-03-13T03:58:03;11.40;99.90
18894;DHT22;9579;49.488;8.226;2023-03-13T04:00:50;13.10;99.90
18894;DHT22;9579;49.488;8.226;2023-03-13T04:03:37;11.50;99.90
18894;DHT22;9579;49.488;8.226;2023-03-13T04:06:25;11.40;99.90
18894;DHT22;9579;49.488;8.226;2023-03-13T04:09:12;12.80;99.90
18894;DHT22;9579;49.488;8.226;2023-03-13T04:11:59;11.40;99.90
18894;DHT22;9579;49.488;8.226;2023-03-13T04:14:46;12.30;99.90
18894;DHT22;9579;49.488;8.226;2023-03-13T04:17:33;12.00;99.90
18894;DHT22;9579;49.488;8.226;2023-03-13T04:20:21;11.40;99.90
18894;DHT22;9579;49.488;8.226;2023-03-13T04:23:09;12.70;99.90
18894;DHT22;9579;49.488;8.226;2023-03-13T04:25:56;11.30;99.90
18894;DHT22;9579;49.488;8.226;2023-03-13T04:28:43;11.60;99.90
18894;DHT22;9579;49.488;8.226;2023-03-13T04:31:30;11.30;99.90
18894;DHT22;9579;49.488;8.226;2023-03-13T04:34:17;11.50;99.90
18894;DHT22;9579;49.488;8.226;2023-03-13T04:37:04;11.40;99.90
18894;DHT22;9579;49.488;8.226;2023-03-13T04:39:52;12.10;99.90
18894;DHT22;9579;49.488;8.226;2023-03-13T04:42:40;11.50;99.90
18894;DHT22;9579;49.488;8.226;2023-03-13T04:45:27;11.50;99.90
18894;DHT22;9579;49.488;8.226;2023-03-13T04:48:14;11.50;99.90
18894;DHT22;9579;49.488;8.226;2023-03-13T04:51:01;12.20;99.90
18894;DHT22;9579;49.488;8.226;2023-03-13T04:53:48;12.50;99.90
18894;DHT22;9579;49.488;8.226;2023-03-13T04:56:37;11.90;99.90
18894;DHT22;9579;49.488;8.226;2023-03-13T04:59:24;12.10;99.90
18894;DHT22;9579;49.488;8.226;2023-03-13T05:02:11;12.00;99.90
18894;DHT22;9579;49.488;8.226;2023-03-13T05:04:58;12.00;99.90
18894;DHT22;9579;49.488;8.226;2023-03-13T05:07:45;12.10;99.90
18894;DHT22;9579;49.488;8.226;2023-03-13T05:10:32;12.20;99.90
18894;DHT22;9579;49.488;8.226;2023-03-13T05:13:21;13.10;99.90
18894;DHT22;9579;49.488;8.226;2023-03-13T05:16:08;12.30;99.90
18894;DHT22;9579;49.488;8.226;2023-03-13T05:18:55;12.80;99.90
18894;DHT22;9579;49.488;8.226;2023-03-13T05:21:42;12.80;99.90
18894;DHT22;9579;49.488;8.226;2023-03-13T05:24:29;12.50;99.90
18894;DHT22;9579;49.488;8.226;2023-03-13T05:27:16;13.30;99.90
18894;DHT22;9579;49.488;8.226;2023-03-13T05:30:05;12.80;99.90
18894;DHT22;9579;49.488;8.226;2023-03-13T05:32:52;12.90;99.90
18894;DHT22;9579;49.488;8.226;2023-03-13T05:35:40;13.60;99.90
18894;DHT22;9579;49.488;8.226;2023-03-13T05:38:27;13.20;99.90
18894;DHT22;9579;49.488;8.226;2023-03-13T05:41:14;13.10;99.90
18894;DHT22;9579;49.488;8.226;2023-03-13T05:44:02;13.40;99.90
18894;DHT22;9579;49.488;8.226;2023-03-13T05:46:50;13.50;99.90
18894;DHT22;9579;49.488;8.226;2023-03-13T05:49:37;14.40;99.90
18894;DHT22;9579;49.488;8.226;2023-03-13T05:52:24;13.90;99.90
18894;DHT22;9579;49.488;8.226;2023-03-13T05:55:11;13.60;99.90
18894;DHT22;9579;49.488;8.226;2023-03-13T05:57:59;14.20;99.90
18894;DHT22;9579;49.488;8.226;2023-03-13T06:00:46;13.80;99.90
18894;DHT22;9579;49.488;8.226;2023-03-13T06:03:35;13.80;99.90
18894;DHT22;9579;49.488;8.226;2023-03-13T06:06:22;13.60;99.90
18894;DHT22;9579;49.488;8.226;2023-03-13T06:09:09;13.90;99.90
18894;DHT22;9579;49.488;8.226;2023-03-13T06:11:56;13.90;99.90
18894;DHT22;9579;49.488;8.226;2023-03-13T06:14:43;14.30;99.90
18894;DHT22;9579;49.488;8.226;2023-03-13T06:17:31;14.00;99.90
18894;DHT22;9579;49.488;8.226;2023-03-13T06:20:20;14.00;99.90
18894;DHT22;9579;49.488;8.226;2023-03-13T06:23:08;13.80;99.90
18894;DHT22;9579;49.488;8.226;2023-03-13T06:25:55;14.70;99.90
18894;DHT22;9579;49.488;8.226;2023-03-13T06:28:43;14.10;99.90
18894;DHT22;9579;49.488;8.226;2023-03-13T06:31:32;14.20;99.90
18894;DHT22;9579;49.488;8.226;2023-03-13T06:34:20;14.50;99.90
18894;DHT22;9579;49.488;8.226;2023-03-13T06:37:08;14.30;99.90
18894;DHT22;9579;49.488;8.226;2023-03-13T06:39:56;14.50;99.90
18894;DHT22;9579;49.488;8.226;2023-03-13T06:42:43;14.30;99.90
18894;DHT22;9579;49.488;8.226;2023-03-13T06:45:30;14.70;99.90
18894;DHT22;9579;49.488;8.226;2023-03-13T06:48:17;14.90;99.90
18894;DHT22;9579;49.488;8.226;2023-03-13T06:51:10;14.30;99.90
18894;DHT22;9579;49.488;8.226;2023-03-13T06:53:58;14.40;99.90
18894;DHT22;9579;49.488;8.226;2023-03-13T06:56:47;14.50;99.90
18894;DHT22;9579;49.488;8.226;2023-03-13T06:59:36;15.00;99.90
18894;DHT22;9579;49.488;8.226;2023-03-13T07:02:38;14.50;99.90
18894;DHT22;9579;49.488;8.226;2023-03-13T07:05:31;14.50;99.90
18894;DHT22;9579;49.488;8.226;2023-03-13T07:08:21;14.50;99.90
18894;DHT22;9579;49.488;8.226;2023-03-13T07:11:12;14.60;99.90
18894;DHT22;9579;49.488;8.226;2023-03-13T07:14:03;14.60;99.90
18894;DHT22;9579;49.488;8.226;2023-03-13T07:16:50;14.60;99.90
18894;DHT22;9579;49.488;8.226;2023-03-13T07:19:37;14.60;99.90
18894;DHT22;9579;49.488;8.226;2023-03-13T07:22:24;14.60;99.90
18894;DHT22;9579;49.488;8.226;2023-03-13T07:25:11;14.70;99.90
18894;DHT22;9579;49.488;8.226;2023-03-13T07:28:00;14.80;99.90
18894;DHT22;9579;49.488;8.226;2023-03-13T07:30:47;14.80;99.90
18894;DHT22;9579;49.488;8.226;2023-03-13T07:33:34;14.80;99.90
18894;DHT22;9579;49.488;8.226;2023-03-13T07:36:22;14.80;99.90
18894;DHT22;9579;49.488;8.226;2023-03-13T07:39:09;14.90;99.90
18894;DHT22;9579;49.488;8.226;2023-03-13T07:41:56;14.80;99.90
18894;DHT22;9579;49.488;8.226;2023-03-13T07:44:45;14.80;99.90
18894;DHT22;9579;49.488;8.226;2023-03-13T07:47:33;14.90;99.90
18894;DHT22;9579;49.488;8.226;2023-03-13T07:50:20;14.90;99.90
18894;DHT22;9579;49.488;8.226;2023-03-13T07:53:07;14.90;99.90
18894;DHT22;9579;49.488;8.226;2023-03-13T07:55:55;14.90;99.90
18894;DHT22;9579;49.488;8.226;2023-03-13T07:58:43;14.90;99.90
18894;DHT22;9579;49.488;8.226;2023-03-13T08:01:32;14.90;99.90
18894;DHT22;9579;49.488;8.226;2023-03-13T08:04:19;14.90;99.90
18894;DHT22;9579;49.488;8.226;2023-03-13T08:07:07;14.90;99.90
18894;DHT22;9579;49.488;8.226;2023-03-13T08:09:54;14.90;99.90
18894;DHT22;9579;49.488;8.226;2023-03-13T08:12:41;15.00;99.90
18894;DHT22;9579;49.488;8.226;2023-03-13T08:15:28;14.90;99.90
18894;DHT22;9579;49.488;8.226;2023-03-13T08:18:16;15.00;99.90
18894;DHT22;9579;49.488;8.226;2023-03-13T08:21:05;15.00;99.90
18894;DHT22;9579;49.488;8.226;2023-03-13T08:23:52;15.00;99.90
18894;DHT22;9579;49.488;8.226;2023-03-13T08:26:41;15.10;99.90
18894;DHT22;9579;49.488;8.226;2023-03-13T08:29:28;15.10;99.90
18894;DHT22;9579;49.488;8.226;2023-03-13T08:32:15;15.10;99.90
18894;DHT22;9579;49.488;8.226;2023-03-13T08:35:04;15.00;99.90
18894;DHT22;9579;49.488;8.226;2023-03-13T08:37:52;15.10;99.90
18894;DHT22;9579;49.488;8.226;2023-03-13T08:40:39;15.10;99.90
18894;DHT22;9579;49.488;8.226;2023-03-13T08:43:25;15.10;99.90
18894;DHT22;9579;49.488;8.226;2023-03-13T08:46:13;15.10;99.90
18894;DHT22;9579;49.488;8.226;2023-03-13T08:49:01;15.20;99.90
18894;DHT22;9579;49.488;8.226;2023-03-13T08:51:50;15.10;99.90
18894;DHT22;9579;49.488;8.226;2023-03-13T08:54:37;15.10;99.90
18894;DHT22;9579;49.488;8.226;2023-03-13T08:57:24;15.10;99.90
18894;DHT22;9579;49.488;8.226;2023-03-13T09:00:12;15.10;99.90
18894;DHT22;9579;49.488;8.226;2023-03-13T09:03:00;15.10;99.90
18894;DHT22;9579;49.488;8.226;2023-03-13T09:05:47;15.00;99.90
18894;DHT22;9579;49.488;8.226;2023-03-13T09:08:36;15.30;99.90
18894;DHT22;9579;49.488;8.226;2023-03-13T09:11:24;15.30;99.90
18894;DHT22;9579;49.488;8.226;2023-03-13T09:14:11;15.30;99.90
18894;DHT22;9579;49.488;8.226;2023-03-13T09:16:58;15.30;99.90
18894;DHT22;9579;49.488;8.226;2023-03-13T09:19:45;15.30;99.90
18894;DHT22;9579;49.488;8.226;2023-03-13T09:22:32;15.20;99.90
18894;DHT22;9579;49.488;8.226;2023-03-13T09:25:21;15.20;99.90
18894;DHT22;9579;49.488;8.226;2023-03-13T09:28:08;15.30;99.90
18894;DHT22;9579;49.488;8.226;2023-03-13T09:30:55;15.40;99.90
18894;DHT22;9579;49.488;8.226;2023-03-13T09:33:43;15.40;99.90
18894;DHT22;9579;49.488;8.226;2023-03-13T09:36:30;15.50;99.90
18894;DHT22;9579;49.488;8.226;2023-03-13T09:39:17;15.70;99.90
18894;DHT22;9579;49.488;8.226;2023-03-13T09:42:11;15.90;99.90
18894;DHT22;9579;49.488;8.226;2023-03-13T09:45:04;16.00;99.90
18894;DHT22;9579;49.488;8.226;2023-03-13T09:47:55;16.20;99.90
18894;DHT22;9579;49.488;8.226;2023-03-13T09:50:49;16.30;99.90
18894;DHT22;9579;49.488;8.226;2023-03-13T09:53:46;16.30;99.90
18894;DHT22;9579;49.488;8.226;2023-03-13T09:56:40;16.40;99.90
18894;DHT22;9579;49.488;8.226;2023-03-13T09:59:36;16.60;99.90
18894;DHT22;9579;49.488;8.226;2023-03-13T10:02:30;16.60;99.90
18894;DHT22;9579;49.488;8.226;2023-03-13T10:05:20;16.70;99.90
18894;DHT22;9579;49.488;8.226;2023-03-13T10:08:14;16.80;99.90
18894;DHT22;9579;49.488;8.226;2023-03-13T10:11:03;16.90;99.90
18894;DHT22;9579;49.488;8.226;2023-03-13T10:13:57;16.90;99.90
18894;DHT22;9579;49.488;8.226;2023-03-13T10:16:51;17.00;99.90
18894;DHT22;9579;49.488;8.226;2023-03-13T10:19:41;16.80;99.90
18894;DHT22;9579;49.488;8.226;2023-03-13T10:22:30;16.80;99.90
18894;DHT22;9579;49.488;8.226;2023-03-13T10:25:27;16.80;99.90
18894;DHT22;9579;49.488;8.226;2023-03-13T10:28:17;16.90;99.90
18894;DHT22;9579;49.488;8.226;2023-03-13T10:31:08;16.80;99.90
18894;DHT22;9579;49.488;8.226;2023-03-13T10:34:07;16.80;99.90
18894;DHT22;9579;49.488;8.226;2023-03-13T10:36:57;17.00;99.90
18894;DHT22;9579;49.488;8.226;2023-03-13T10:39:44;17.20;99.90
18894;DHT22;9579;49.488;8.226;2023-03-13T10:42:41;17.40;99.90
18894;DHT22;9579;49.488;8.226;2023-03-13T10:45:31;17.40;99.90
18894;DHT22;9579;49.488;8.226;2023-03-13T10:48:22;17.30;99.90
18894;DHT22;9579;49.488;8.226;2023-03-13T10:51:20;17.10;99.90
18894;DHT22;9579;49.488;8.226;2023-03-13T10:54:15;17.20;99.90
18894;DHT22;9579;49.488;8.226;2023-03-13T10:57:27;17.20;99.90
18894;DHT22;9579;49.488;8.226;2023-03-13T11:00:33;17.20;99.90
18894;DHT22;9579;49.488;8.226;2023-03-13T11:03:25;17.00;99.90
18894;DHT22;9579;49.488;8.226;2023-03-13T11:06:25;17.20;99.90
18894;DHT22;9579;49.488;8.226;2023-03-13T11:09:14;17.60;99.90
18894;DHT22;9579;49.488;8.226;2023-03-13T11:12:04;17.70;99.90
18894;DHT22;9579;49.488;8.226;2023-03-13T11:14:56;17.80;99.90
18894;DHT22;9579;49.488;8.226;2023-03-13T11:17:48;18.10;99.90
18894;DHT22;9579;49.488;8.226;2023-03-13T11:20:39;18.40;99.90
18894;DHT22;9579;49.488;8.226;2023-03-13T11:23:28;18.40;99.90
18894;DHT22;9579;49.488;8.226;2023-03-13T11:26:21;18.60;99.90
18894;DHT22;9579;49.488;8.226;2023-03-13T11:29:18;19.10;99.90
18894;DHT22;9579;49.488;8.226;2023-03-13T11:32:16;19.50;99.90
18894;DHT22;9579;49.488;8.226;2023-03-13T11:35:16;19.50;99.90
18894;DHT22;9579;49.488;8.226;2023-03-13T11:38:08;19.70;99.90
18894;DHT22;9579;49.488;8.226;2023-03-13T11:41:12;20.30;99.90
18894;DHT22;9579;49.488;8.226;2023-03-13T11:44:18;20.90;99.90
18894;DHT22;9579;49.488;8.226;2023-03-13T11:47:22;20.80;99.90
18894;DHT22;9579;49.488;8.226;2023-03-13T11:50:22;21.00;99.90
18894;DHT22;9579;49.488;8.226;2023-03-13T11:53:28;21.30;98.80
18894;DHT22;9579;49.488;8.226;2023-03-13T11:56:21;21.30;98.50
18894;DHT22;9579;49.488;8.226;2023-03-13T11:59:31;21.10;99.10
18894;DHT22;9579;49.488;8.226;2023-03-13T12:02:26;20.80;99.70
18894;DHT22;9579;49.488;8.226;2023-03-13T12:05:17;20.80;99.40
18894;DHT22;9579;49.488;8.226;2023-03-13T12:08:10;20.80;99.20
18894;DHT22;9579;49.488;8.226;2023-03-13T12:11:03;20.60;99.80
18894;DHT22;9579;49.488;8.226;2023-03-13T12:13:56;20.50;99.80
18894;DHT22;9579;49.488;8.226;2023-03-13T12:16:48;20.40;99.70
18894;DHT22;9579;49.488;8.226;2023-03-13T12:19:41;20.40;99.30
18894;DHT22;9579;49.488;8.226;2023-03-13T12:22:36;20.50;99.50
18894;DHT22;9579;49.488;8.226;2023-03-13T12:25:26;20.30;99.90
18894;DHT22;9579;49.488;8.226;2023-03-13T12:28:23;20.20;99.50
18894;DHT22;9579;49.488;8.226;2023-03-13T12:31:18;20.20;99.90
18894;DHT22;9579;49.488;8.226;2023-03-13T12:34:12;20.30;99.90
18894;DHT22;9579;49.488;8.226;2023-03-13T12:37:05;20.30;99.80
18894;DHT22;9579;49.488;8.226;2023-03-13T12:39:59;20.30;99.80
18894;DHT22;9579;49.488;8.226;2023-03-13T12:42:52;20.30;99.70
18894;DHT22;9579;49.488;8.226;2023-03-13T12:45:53;20.40;99.90
18894;DHT22;9579;49.488;8.226;2023-03-13T12:49:03;20.40;99.70
18894;DHT22;9579;49.488;8.226;2023-03-13T12:52:06;20.40;99.50
18894;DHT22;9579;49.488;8.226;2023-03-13T12:55:18;20.50;99.80
18894;DHT22;9579;49.488;8.226;2023-03-13T12:58:25;20.50;99.50
18894;DHT22;9579;49.488;8.226;2023-03-13T13:01:18;20.60;98.90
18894;DHT22;9579;49.488;8.226;2023-03-13T13:04:12;20.50;99.20
18894;DHT22;9579;49.488;8.226;2023-03-13T13:07:02;20.40;99.40
18894;DHT22;9579;49.488;8.226;2023-03-13T13:10:02;20.30;99.70
18894;DHT22;9579;49.488;8.226;2023-03-13T13:13:17;20.30;99.90
18894;DHT22;9579;49.488;8.226;2023-03-13T13:16:05;20.30;99.90
18894;DHT22;9579;49.488;8.226;2023-03-13T13:22:47;20.90;98.70
18894;DHT22;9579;49.488;8.226;2023-03-13T13:25:34;20.90;99.60
18894;DHT22;9579;49.488;8.226;2023-03-13T13:28:34;21.30;99.30
18894;DHT22;9579;49.488;8.226;2023-03-13T13:31:53;21.60;98.30
18894;DHT22;9579;49.488;8.226;2023-03-13T13:34:54;21.70;97.70
18894;DHT22;9579;49.488;8.226;2023-03-13T13:37:42;21.70;97.50
18894;DHT22;9579;49.488;8.226;2023-03-13T13:40:30;21.80;97.70
18894;DHT22;9579;49.488;8.226;2023-03-13T13:43:21;22.10;97.50
18894;DHT22;9579;49.488;8.226;2023-03-13T13:46:21;22.50;96.80
18894;DHT22;9579;49.488;8.226;2023-03-13T13:49:14;23.10;96.30
18894;DHT22;9579;49.488;8.226;2023-03-13T13:55:41;23.40;95.10
18894;DHT22;9579;49.488;8.226;2023-03-13T13:58:30;23.40;94.20
18894;DHT22;9579;49.488;8.226;2023-03-13T14:01:19;23.80;94.40
18894;DHT22;9579;49.488;8.226;2023-03-13T14:04:13;24.00;93.60
18894;DHT22;9579;49.488;8.226;2023-03-13T14:07:03;23.80;93.80
18894;DHT22;9579;49.488;8.226;2023-03-13T14:09:58;24.00;93.00
18894;DHT22;9579;49.488;8.226;2023-03-13T14:12:51;24.00;92.80
18894;DHT22;9579;49.488;8.226;2023-03-13T14:15:41;24.00;93.00
18894;DHT22;9579;49.488;8.226;2023-03-13T14:18:31;23.90;92.70
18894;DHT22;9579;49.488;8.226;2023-03-13T14:21:21;24.00;93.00
18894;DHT22;9579;49.488;8.226;2023-03-13T14:24:12;24.20;93.10
18894;DHT22;9579;49.488;8.226;2023-03-13T14:26:59;23.80;92.90
18894;DHT22;9579;49.488;8.226;2023-03-13T14:29:59;23.70;93.10
18894;DHT22;9579;49.488;8.226;2023-03-13T14:32:46;24.00;93.10
18894;DHT22;9579;49.488;8.226;2023-03-13T14:35:35;24.40;92.40
18894;DHT22;9579;49.488;8.226;2023-03-13T14:38:23;24.70;91.50
18894;DHT22;9579;49.488;8.226;2023-03-13T14:41:22;24.80;92.10
18894;DHT22;9579;49.488;8.226;2023-03-13T14:44:22;25.10;91.50
18894;DHT22;9579;49.488;8.226;2023-03-13T14:47:20;25.40;91.30
18894;DHT22;9579;49.488;8.226;2023-03-13T14:50:10;25.20;91.50
18894;DHT22;9579;49.488;8.226;2023-03-13T14:53:02;25.10;91.60
18894;DHT22;9579;49.488;8.226;2023-03-13T14:56:08;25.00;90.80
18894;DHT22;9579;49.488;8.226;2023-03-13T14:59:05;24.80;91.30
18894;DHT22;9579;49.488;8.226;2023-03-13T15:01:58;24.60;90.80
18894;DHT22;9579;49.488;8.226;2023-03-13T15:04:53;24.20;91.40
18894;DHT22;9579;49.488;8.226;2023-03-13T15:07:45;23.80;92.20
18894;DHT22;9579;49.488;8.226;2023-03-13T15:10:36;23.30;92.20
18894;DHT22;9579;49.488;8.226;2023-03-13T15:13:25;22.90;92.80
18894;DHT22;9579;49.488;8.226;2023-03-13T15:16:15;22.70;93.00
18894;DHT22;9579;49.488;8.226;2023-03-13T15:19:04;22.60;92.80
18894;DHT22;9579;49.488;8.226;2023-03-13T15:21:51;22.40;93.20
18894;DHT22;9579;49.488;8.226;2023-03-13T15:24:39;22.30;93.00
18894;DHT22;9579;49.488;8.226;2023-03-13T15:27:28;22.10;93.30
18894;DHT22;9579;49.488;8.226;2023-03-13T15:30:16;21.90;93.00
18894;DHT22;9579;49.488;8.226;2023-03-13T15:33:04;21.90;93.50
18894;DHT22;9579;49.488;8.226;2023-03-13T15:35:51;21.90;93.10
18894;DHT22;9579;49.488;8.226;2023-03-13T15:38:38;21.90;92.90
18894;DHT22;9579;49.488;8.226;2023-03-13T15:41:25;21.80;93.30
18894;DHT22;9579;49.488;8.226;2023-03-13T15:52:16;18.40;93.90
18894;DHT22;9579;49.488;8.226;2023-03-13T15:55:05;17.70;94.40
18894;DHT22;9579;49.488;8.226;2023-03-13T15:57:53;17.70;95.30
18894;DHT22;9579;49.488;8.226;2023-03-13T16:00:41;17.40;96.00
18894;DHT22;9579;49.488;8.226;2023-03-13T16:03:30;17.20;96.40
18894;DHT22;9579;49.488;8.226;2023-03-13T16:06:20;17.60;97.50
18894;DHT22;9579;49.488;8.226;2023-03-13T16:09:16;16.80;99.80
18894;DHT22;9579;49.488;8.226;2023-03-13T16:12:06;16.40;99.90
18894;DHT22;9579;49.488;8.226;2023-03-13T16:14:56;16.00;99.90
18894;DHT22;9579;49.488;8.226;2023-03-13T16:17:44;16.40;99.90
18894;DHT22;9579;49.488;8.226;2023-03-13T16:20:40;14.40;99.90
18894;DHT22;9579;49.488;8.226;2023-03-13T16:23:29;15.90;99.90
18894;DHT22;9579;49.488;8.226;2023-03-13T16:26:22;15.30;99.90
18894;DHT22;9579;49.488;8.226;2023-03-13T16:29:11;16.30;99.90
18894;DHT22;9579;49.488;8.226;2023-03-13T16:32:02;14.40;99.90
18894;DHT22;9579;49.488;8.226;2023-03-13T16:34:50;15.70;99.90
18894;DHT22;9579;49.488;8.226;2023-03-13T16:37:37;15.00;99.90
18894;DHT22;9579;49.488;8.226;2023-03-13T16:40:36;14.70;99.90
18894;DHT22;9579;49.488;8.226;2023-03-13T16:43:27;14.80;99.90
18894;DHT22;9579;49.488;8.226;2023-03-13T16:46:17;14.30;99.90
18894;DHT22;9579;49.488;8.226;2023-03-13T16:49:06;14.60;99.90
18894;DHT22;9579;49.488;8.226;2023-03-13T16:51:54;14.50;99.90
18894;DHT22;9579;49.488;8.226;2023-03-13T17:00:18;14.40;99.90
18894;DHT22;9579;49.488;8.226;2023-03-13T17:03:20;13.60;99.90
18894;DHT22;9579;49.488;8.226;2023-03-13T17:06:17;14.10;99.90
18894;DHT22;9579;49.488;8.226;2023-03-13T17:11:40;14.10;99.90
18894;DHT22;9579;49.488;8.226;2023-03-13T17:17:03;14.10;99.90
18894;DHT22;9579;49.488;8.226;2023-03-13T17:22:27;14.30;99.90
18894;DHT22;9579;49.488;8.226;2023-03-13T17:25:14;15.20;99.90
18894;DHT22;9579;49.488;8.226;2023-03-13T17:28:02;14.10;99.90
18894;DHT22;9579;49.488;8.226;2023-03-13T17:30:49;14.30;99.90
18894;DHT22;9579;49.488;8.226;2023-03-13T17:33:38;14.10;99.90
18894;DHT22;9579;49.488;8.226;2023-03-13T17:36:35;14.30;99.90
18894;DHT22;9579;49.488;8.226;2023-03-13T17:44:34;14.40;99.90
18894;DHT22;9579;49.488;8.226;2023-03-13T17:47:24;14.40;99.90
18894;DHT22;9579;49.488;8.226;2023-03-13T17:50:21;14.50;99.90
18894;DHT22;9579;49.488;8.226;2023-03-13T17:53:09;14.50;99.90
18894;DHT22;9579;49.488;8.226;2023-03-13T17:55:56;14.50;99.90
18894;DHT22;9579;49.488;8.226;2023-03-13T17:58:44;15.00;99.90
18894;DHT22;9579;49.488;8.226;2023-03-13T18:01:35;15.30;99.90
18894;DHT22;9579;49.488;8.226;2023-03-13T18:04:26;13.40;99.90
18894;DHT22;9579;49.488;8.226;2023-03-13T18:07:22;15.00;99.90
18894;DHT22;9579;49.488;8.226;2023-03-13T18:10:22;13.40;99.90
18894;DHT22;9579;49.488;8.226;2023-03-13T18:13:20;14.00;99.90
18894;DHT22;9579;49.488;8.226;2023-03-13T18:21:22;14.00;99.90
18894;DHT22;9579;49.488;8.226;2023-03-13T18:26:48;14.20;99.90
18894;DHT22;9579;49.488;8.226;2023-03-13T18:29:36;15.10;99.90
18894;DHT22;9579;49.488;8.226;2023-03-13T18:32:30;14.20;99.90
18894;DHT22;9579;49.488;8.226;2023-03-13T18:43:03;14.10;99.90
18894;DHT22;9579;49.488;8.226;2023-03-13T18:48:14;14.10;99.90
18894;DHT22;9579;49.488;8.226;2023-03-13T18:51:02;14.20;99.90
18894;DHT22;9579;49.488;8.226;2023-03-13T18:59:02;14.50;99.90
18894;DHT22;9579;49.488;8.226;2023-03-13T19:01:51;14.50;99.90
18894;DHT22;9579;49.488;8.226;2023-03-13T19:07:23;14.40;99.90
18894;DHT22;9579;49.488;8.226;2023-03-13T19:10:18;15.60;99.90
18894;DHT22;9579;49.488;8.226;2023-03-13T19:13:05;14.60;99.90
18894;DHT22;9579;49.488;8.226;2023-03-13T19:15:55;13.30;99.90